Time;durP1;ratioP1;P1;durP2;ratioP2;P2;SDS_P1;SDS_P2;PMS_P1;PMS_P2;Temp;Humidity;BMP_temperature;BMP_pressure;BME280_temperature;BME280_humidity;BME280_pressure;Samples;Min_cycle;Max_cycle;Signal;HPM_P1;HPM_P2
2022/10/21 00:00:48;;;;;;;;;;;;;;;;;;5034388;28;8615;-82
2022/10/21 00:03:14;;;;;;;;;;;;;;;;;;5042350;28;7347;-80
2022/10/21 00:05:39;;;;;;;;;;;;;;;;;;5039071;28;8390;-87
2022/10/21 00:08:05;;;;;;;;;;;;;;;;;;5032448;28;8413;-85
2022/10/21 00:10:31;;;;;;;;;;;;;;;;;;5032149;28;7119;-85
2022/10/21 00:12:56;;;;;;;;;;;;;;;;;;5032036;28;8828;-86
2022/10/21 00:15:22;;;;;;;;;;;;;;;;;;5032258;28;8854;-85
2022/10/21 00:17:47;;;;;;;;;;;;;;;;;;5032206;28;7243;-85
2022/10/21 00:20:13;;;;;;;;;;;;;;;;;;5031909;28;7019;-86
2022/10/21 00:22:38;;;;;;;;;;;;;;;;;;5032465;28;7143;-86
2022/10/21 00:25:04;;;;;;;;;;;;;;;;;;5032006;28;8391;-85
2022/10/21 00:27:30;;;;;;;;;;;;;;;;;;5031873;28;8400;-86
2022/10/21 00:29:55;;;;;;;;;;;;;;;;;;5031458;28;8488;-84
2022/10/21 00:32:21;;;;;;;;;;;;;;;;;;5031820;28;7173;-84
2022/10/21 00:34:47;;;;;;;;;;;;;;;;;;5031298;28;7016;-85
2022/10/21 00:37:13;;;;;;;;;;;;;;;;;;5031877;28;7095;-85
2022/10/21 00:39:39;;;;;;;;;;;;;;;;;;5031535;28;7168;-85
2022/10/21 00:42:10;;;;;;;;;;;;;;;;;;5031442;28;7207;-85
2022/10/21 00:44:36;;;;;;;;;;;;;;;;;;5031800;28;7070;-86
2022/10/21 00:47:06;;;;;;;;;;;;;;;;;;5031816;28;7234;-85
2022/10/21 00:49:38;;;;;;;;;;;;;;;;;;5031526;28;8494;-85
2022/10/21 00:52:08;;;;;;;;;;;;;;;;;;5031121;28;7159;-85
2022/10/21 00:54:35;;;;;;;;;;;;;;;;;;5030880;28;7040;-84
2022/10/21 00:57:01;;;;;;;;;;;;;;;;;;5014494;28;8600;-83
2022/10/21 00:59:30;;;;;;;;;;;;;;;;;;5014674;28;7165;-86
2022/10/21 01:01:56;;;;;;;;;;;;;;;;;;5014818;28;7186;-86
2022/10/21 01:04:22;;;;;;;;;;;;;;;;;;5014854;28;8391;-83
2022/10/21 01:06:48;;;;;;;;;;;;;;;;;;5014598;28;8490;-85
2022/10/21 01:09:15;;;;;;;;;;;;;;;;;;5014325;28;7053;-86
2022/10/21 01:11:43;;;;;;;;;;;;;;;;;;5014822;28;7023;-86
2022/10/21 01:14:18;;;;;;;;;;;;;;;;;;5014574;28;8382;-86
2022/10/21 01:16:53;;;;;;;;;;;;;;;;;;5014679;28;8467;-84
2022/10/21 01:19:19;;;;;;;;;;;;;;;;;;5014138;28;8452;-86
2022/10/21 01:22:03;;;;;;;;;;;;;;;;;;5014228;28;8394;-85
2022/10/21 01:24:31;;;;;;;;;;;;;;;;;;5013999;28;7338;-85
2022/10/21 01:27:12;;;;;;;;;;;;;;;;;;5014412;28;8399;-85
2022/10/21 01:29:47;;;;;;;;;;;;;;;;;;5014653;28;7207;-86
2022/10/21 01:32:27;;;;;;;;;;;;;;;;;;5014223;28;7200;-86
2022/10/21 01:34:56;;;;;;;;;;;;;;;;;;5014322;28;8307;-85
2022/10/21 01:37:26;;;;;;;;;;;;;;;;;;5014438;28;7151;-85
2022/10/21 01:40:14;;;;;;;;;;;;;;;;;;5014189;28;8392;-85
2022/10/21 01:42:47;;;;;;;;;;;;;;;;;;5013827;28;7184;-85
2022/10/21 01:45:19;;;;;;;;;;;;;;;;;;5014348;28;7233;-88
2022/10/21 01:47:54;;;;;;;;;;;;;;;;;;5014116;28;7245;-86
2022/10/21 01:50:24;;;;;;;;;;;;;;;;;;5014458;28;7044;-86
2022/10/21 01:52:52;;;;;;;;;;;;;;;;;;5013817;28;7171;-86
2022/10/21 01:55:22;;;;;;;;;;;;;;;;;;5047108;28;7362;-83
2022/10/21 01:57:55;;;;;;;;;;;;;;;;;;5046997;28;7152;-86
2022/10/21 02:00:21;;;;;;;;;;;;;;;;;;5046825;28;8488;-86
2022/10/21 02:02:48;;;;;;;;;;;;;;;;;;5047277;28;7077;-84
2022/10/21 02:05:22;;;;;;;;;;;;;;;;;;5047102;28;7336;-85
2022/10/21 02:07:49;;;;;;;;;;;;;;;;;;5047130;28;8474;-86
2022/10/21 02:10:16;;;;;;;;;;;;;;;;;;5046984;28;8414;-86
2022/10/21 02:12:45;;;;;;;;;;;;;;;;;;5049600;28;7055;-84
2022/10/21 02:15:13;;;;;;;;;;;;;;;;;;5051060;28;7101;-85
2022/10/21 02:17:42;;;;;;;;;;;;;;;;;;5051440;28;7163;-84
2022/10/21 02:20:12;;;;;;;;;;;;;;;;;;5051414;28;8441;-86
2022/10/21 02:22:41;;;;;;;;;;;;;;;;;;5051642;28;8439;-79
2022/10/21 02:25:16;;;;;;;;;;;;;;;;;;5056573;28;8320;-85
2022/10/21 02:27:43;;;;;;;;;;;;;;;;;;5054872;28;7107;-84
2022/10/21 02:30:08;;;;;;;;;;;;;;;;;;5054288;28;7162;-87
2022/10/21 02:32:37;;;;;;;;;;;;;;;;;;5054626;28;8374;-85
2022/10/21 02:35:11;;;;;;;;;;;;;;;;;;5022253;28;8467;-86
2022/10/21 02:37:55;;;;;;;;;;;;;;;;;;5020423;28;7243;-85
2022/10/21 02:40:41;;;;;;;;;;;;;;;;;;5020663;28;7046;-84
2022/10/21 02:43:16;;;;;;;;;;;;;;;;;;5056286;28;8502;-81
2022/10/21 02:45:45;;;;;;;;;;;;;;;;;;5056264;28;7244;-80
2022/10/21 02:48:10;;;;;;;;;;;;;;;;;;5053150;28;7032;-84
2022/10/21 02:50:36;;;;;;;;;;;;;;;;;;5051321;28;8483;-86
2022/10/21 02:53:02;;;;;;;;;;;;;;;;;;5052750;28;7029;-85
2022/10/21 02:55:27;;;;;;;;;;;;;;;;;;5031050;28;7063;-86
2022/10/21 02:57:53;;;;;;;;;;;;;;;;;;5055541;28;7150;-84
2022/10/21 03:00:18;;;;;;;;;;;;;;;;;;5054783;28;8381;-86
2022/10/21 03:02:44;;;;;;;;;;;;;;;;;;5057034;28;7162;-83
2022/10/21 03:05:11;;;;;;;;;;;;;;;;;;5058287;28;8388;-84
2022/10/21 03:07:37;;;;;;;;;;;;;;;;;;5056300;28;7168;-86
2022/10/21 03:10:03;;;;;;;;;;;;;;;;;;5057118;28;7148;-85
2022/10/21 03:12:28;;;;;;;;;;;;;;;;;;5056463;28;8433;-86
2022/10/21 03:14:54;;;;;;;;;;;;;;;;;;5056056;28;7379;-85
2022/10/21 03:17:19;;;;;;;;;;;;;;;;;;5057119;28;7161;-84
2022/10/21 03:19:45;;;;;;;;;;;;;;;;;;5057951;28;7025;-84
2022/10/21 03:22:10;;;;;;;;;;;;;;;;;;5055679;28;7375;-85
2022/10/21 03:24:36;;;;;;;;;;;;;;;;;;5055205;28;7115;-84
2022/10/21 03:27:01;;;;;;;;;;;;;;;;;;5055404;28;6982;-87
2022/10/21 03:29:27;;;;;;;;;;;;;;;;;;5055491;28;8377;-79
2022/10/21 03:31:52;;;;;;;;;;;;;;;;;;5061848;28;8713;-84
2022/10/21 03:34:17;;;;;;;;;;;;;;;;;;5057304;28;8788;-85
2022/10/21 03:36:43;;;;;;;;;;;;;;;;;;5052723;28;7411;-86
2022/10/21 03:39:12;;;;;;;;;;;;;;;;;;5052604;28;7203;-86
2022/10/21 03:41:38;;;;;;;;;;;;;;;;;;5052631;28;7243;-86
2022/10/21 03:44:03;;;;;;;;;;;;;;;;;;5052802;28;7391;-85
2022/10/21 03:46:29;;;;;;;;;;;;;;;;;;5052192;28;7198;-84
2022/10/21 03:48:55;;;;;;;;;;;;;;;;;;5052747;28;7241;-86
2022/10/21 03:51:20;;;;;;;;;;;;;;;;;;5052517;28;8458;-86
2022/10/21 03:53:45;;;;;;;;;;;;;;;;;;5040786;28;8442;-84
2022/10/21 03:56:11;;;;;;;;;;;;;;;;;;5016943;28;7022;-86
2022/10/21 03:58:37;;;;;;;;;;;;;;;;;;5032131;28;7177;-85
2022/10/21 04:01:03;;;;;;;;;;;;;;;;;;5032325;28;8653;-85
2022/10/21 04:03:29;;;;;;;;;;;;;;;;;;5032906;28;7120;-85
2022/10/21 04:05:55;;;;;;;;;;;;;;;;;;5032740;28;8408;-85
2022/10/21 04:08:20;;;;;;;;;;;;;;;;;;5032691;28;8584;-85
2022/10/21 04:10:46;;;;;;;;;;;;;;;;;;5032110;28;8406;-84
2022/10/21 04:13:12;;;;;;;;;;;;;;;;;;5032305;28;8648;-84
2022/10/21 04:15:37;;;;;;;;;;;;;;;;;;5032191;28;8402;-85
2022/10/21 04:18:04;;;;;;;;;;;;;;;;;;5032478;28;7243;-85
2022/10/21 04:20:29;;;;;;;;;;;;;;;;;;5032051;28;7451;-85
2022/10/21 04:22:55;;;;;;;;;;;;;;;;;;5032235;28;8575;-83
2022/10/21 04:25:20;;;;;;;;;;;;;;;;;;5031650;28;7049;-85
2022/10/21 04:27:46;;;;;;;;;;;;;;;;;;5032071;28;8769;-86
2022/10/21 04:30:11;;;;;;;;;;;;;;;;;;5031780;28;8558;-86
2022/10/21 04:32:36;;;;;;;;;;;;;;;;;;5031927;28;8397;-85
2022/10/21 04:35:02;;;;;;;;;;;;;;;;;;5031361;28;7428;-85
2022/10/21 04:37:27;;;;;;;;;;;;;;;;;;5031847;28;8444;-86
2022/10/21 04:39:56;;;;;;;;;;;;;;;;;;5032024;28;7036;-86
2022/10/21 04:42:21;;;;;;;;;;;;;;;;;;5031633;28;8508;-85
2022/10/21 04:44:47;;;;;;;;;;;;;;;;;;5031339;28;6976;-86
2022/10/21 04:47:12;;;;;;;;;;;;;;;;;;5031552;28;7245;-86
2022/10/21 04:49:38;;;;;;;;;;;;;;;;;;5031168;28;8556;-86
2022/10/21 04:52:03;;;;;;;;;;;;;;;;;;5031374;28;8475;-85
2022/10/21 04:54:29;;;;;;;;;;;;;;;;;;5017495;28;8887;-85
2022/10/21 04:56:54;;;;;;;;;;;;;;;;;;5047608;28;8549;-84
2022/10/21 04:59:20;;;;;;;;;;;;;;;;;;5048409;28;8262;-85
2022/10/21 05:01:45;;;;;;;;;;;;;;;;;;5047764;28;8481;-85
2022/10/21 05:04:10;;;;;;;;;;;;;;;;;;5047714;28;8473;-85
2022/10/21 05:06:36;;;;;;;;;;;;;;;;;;5048133;28;8386;-85
2022/10/21 05:09:02;;;;;;;;;;;;;;;;;;5047705;28;8453;-85
2022/10/21 05:11:27;;;;;;;;;;;;;;;;;;5047952;28;8702;-85
2022/10/21 05:13:52;;;;;;;;;;;;;;;;;;5047695;28;8682;-85
2022/10/21 05:16:18;;;;;;;;;;;;;;;;;;5047418;28;7142;-84
2022/10/21 05:18:43;;;;;;;;;;;;;;;;;;5055031;28;7044;-79
2022/10/21 05:21:09;;;;;;;;;;;;;;;;;;5033945;28;7261;-80
2022/10/21 05:23:34;;;;;;;;;;;;;;;;;;5034409;28;8510;-81
2022/10/21 05:26:00;;;;;;;;;;;;;;;;;;5034457;28;8322;-82
2022/10/21 05:28:25;;;;;;;;;;;;;;;;;;5034069;28;8415;-83
2022/10/21 05:30:51;;;;;;;;;;;;;;;;;;5033975;28;8886;-80
2022/10/21 05:33:17;;;;;;;;;;;;;;;;;;5035953;28;8424;-79
2022/10/21 05:35:42;;;;;;;;;;;;;;;;;;5033688;28;8560;-80
2022/10/21 05:38:08;;;;;;;;;;;;;;;;;;5033603;28;7015;-81
2022/10/21 05:40:33;;;;;;;;;;;;;;;;;;5034065;28;8404;-80
2022/10/21 05:42:59;;;;;;;;;;;;;;;;;;5033647;28;8525;-80
2022/10/21 05:45:25;;;;;;;;;;;;;;;;;;5033232;28;8517;-79
2022/10/21 05:47:51;;;;;;;;;;;;;;;;;;5032930;28;7186;-81
2022/10/21 05:50:16;;;;;;;;;;;;;;;;;;5033608;28;7219;-80
2022/10/21 05:52:42;;;;;;;;;;;;;;;;;;5033921;28;8391;-80
2022/10/21 05:55:08;;;;;;;;;;;;;;;;;;5033967;28;8399;-79
2022/10/21 05:57:34;;;;;;;;;;;;;;;;;;5032747;28;7035;-81
2022/10/21 06:00:00;;;;;;;;;;;;;;;;;;5049189;28;8416;-85
2022/10/21 06:02:26;;;;;;;;;;;;;;;;;;5048928;28;8462;-83
2022/10/21 06:04:51;;;;;;;;;;;;;;;;;;5049897;28;8407;-85
2022/10/21 06:07:16;;;;;;;;;;;;;;;;;;5050380;28;7012;-82
2022/10/21 06:09:42;;;;;;;;;;;;;;;;;;5050067;28;8384;-85
2022/10/21 06:12:08;;;;;;;;;;;;;;;;;;5049788;28;7011;-87
2022/10/21 06:14:36;;;;;;;;;;;;;;;;;;5050047;28;7413;-81
2022/10/21 06:17:05;;;;;;;;;;;;;;;;;;5050281;28;7285;-83
2022/10/21 06:19:30;;;;;;;;;;;;;;;;;;5049725;28;7259;-87
2022/10/21 06:21:56;;;;;;;;;;;;;;;;;;5050022;28;8415;-86
2022/10/21 06:24:23;;;;;;;;;;;;;;;;;;5049958;28;8708;-85
2022/10/21 06:26:49;;;;;;;;;;;;;;;;;;5049565;28;7344;-85
2022/10/21 06:29:15;;;;;;;;;;;;;;;;;;5048398;28;8377;-86
2022/10/21 06:31:40;;;;;;;;;;;;;;;;;;5049185;28;7409;-76
2022/10/21 06:34:06;;;;;;;;;;;;;;;;;;5049684;28;7036;-84
2022/10/21 06:36:31;;;;;;;;;;;;;;;;;;5050091;28;8570;-86
2022/10/21 06:38:57;;;;;;;;;;;;;;;;;;5050198;28;8700;-85
2022/10/21 06:41:22;;;;;;;;;;;;;;;;;;5052583;28;8405;-78
2022/10/21 06:43:48;;;;;;;;;;;;;;;;;;5060976;28;8429;-88
2022/10/21 06:46:14;;;;;;;;;;;;;;;;;;5050711;28;8455;-86
2022/10/21 06:48:40;;;;;;;;;;;;;;;;;;5054733;28;8309;-84
2022/10/21 06:51:11;;;;;;;;;;;;;;;;;;5053279;28;8388;-84
2022/10/21 06:53:37;;;;;;;;;;;;;;;;;;5048049;28;8397;-86
2022/10/21 06:56:04;;;;;;;;;;;;;;;;;;5016809;28;7146;-83
2022/10/21 06:58:31;;;;;;;;;;;;;;;;;;5036882;28;7173;-86
2022/10/21 07:00:57;;;;;;;;;;;;;;;;;;5055733;28;7115;-86
2022/10/21 07:03:22;;;;;;;;;;;;;;;;;;5056759;28;6845;-81
2022/10/21 07:05:58;;;;;;;;;;;;;;;;;;5057934;28;8387;-85
2022/10/21 07:08:25;;;;;;;;;;;;;;;;;;5057271;28;8681;-85
2022/10/21 07:10:50;;;;;;;;;;;;;;;;;;5056671;28;7162;-86
2022/10/21 07:13:16;;;;;;;;;;;;;;;;;;5055727;28;8271;-85
2022/10/21 07:15:41;;;;;;;;;;;;;;;;;;5055615;28;7251;-88
2022/10/21 07:18:07;;;;;;;;;;;;;;;;;;5054041;28;8350;-88
2022/10/21 07:20:33;;;;;;;;;;;;;;;;;;5054577;28;7134;-82
2022/10/21 07:22:59;;;;;;;;;;;;;;;;;;5054178;28;7159;-85
2022/10/21 07:25:24;;;;;;;;;;;;;;;;;;5053979;28;7017;-85
2022/10/21 07:27:50;;;;;;;;;;;;;;;;;;5055115;28;8397;-84
2022/10/21 07:30:16;;;;;;;;;;;;;;;;;;5055804;28;8642;-87
2022/10/21 07:32:41;;;;;;;;;;;;;;;;;;5054263;28;7120;-86
2022/10/21 07:35:07;;;;;;;;;;;;;;;;;;5053701;28;7187;-86
2022/10/21 07:37:32;;;;;;;;;;;;;;;;;;5053324;28;7003;-86
2022/10/21 07:39:58;;;;;;;;;;;;;;;;;;5053145;28;7225;-86
2022/10/21 07:42:23;;;;;;;;;;;;;;;;;;5052859;28;7048;-83
2022/10/21 07:44:51;;;;;;;;;;;;;;;;;;5060599;28;8508;-79
2022/10/21 07:47:17;;;;;;;;;;;;;;;;;;5058265;28;8892;-84
2022/10/21 07:49:43;;;;;;;;;;;;;;;;;;5063260;28;8455;-80
2022/10/21 07:52:08;;;;;;;;;;;;;;;;;;5063979;28;7330;-79
2022/10/21 07:54:34;;;;;;;;;;;;;;;;;;5042425;28;7217;-84
2022/10/21 07:56:59;;;;;;;;;;;;;;;;;;5032719;28;8400;-79
2022/10/21 07:59:25;;;;;;;;;;;;;;;;;;5046974;28;8618;-78
2022/10/21 08:01:51;;;;;;;;;;;;;;;;;;5047263;28;7140;-85
2022/10/21 08:04:19;;;;;;;;;;;;;;;;;;5047577;28;7065;-79
2022/10/21 08:06:46;;;;;;;;;;;;;;;;;;5046669;28;7321;-82
2022/10/21 08:09:12;;;;;;;;;;;;;;;;;;5036010;28;8741;-82
2022/10/21 08:11:38;;;;;;;;;;;;;;;;;;5035715;28;8316;-88
2022/10/21 08:14:08;;;;;;;;;;;;;;;;;;5048526;28;7567;-87
2022/10/21 08:16:34;;;;;;;;;;;;;;;;;;5015570;28;8468;-87
2022/10/21 08:18:59;;;;;;;;;;;;;;;;;;5015411;28;7036;-88
2022/10/21 08:21:26;;;;;;;;;;;;;;;;;;5048607;28;8468;-89
2022/10/21 08:23:52;;;;;;;;;;;;;;;;;;5015890;28;8700;-88
2022/10/21 08:26:18;;;;;;;;;;;;;;;;;;5016025;28;7022;-87
2022/10/21 08:28:44;;;;;;;;;;;;;;;;;;5015261;28;8323;-86
2022/10/21 08:31:11;;;;;;;;;;;;;;;;;;5015637;28;7100;-86
2022/10/21 08:33:37;;;;;;;;;;;;;;;;;;5018888;28;7035;-81
2022/10/21 08:36:14;;;;;;;;;;;;;;;;;;5027223;28;7065;-80
2022/10/21 08:38:40;;;;;;;;;;;;;;;;;;5026833;28;7374;-85
2022/10/21 08:41:29;;;;;;;;;;;;;;;;;;5021946;28;7115;-82
2022/10/21 08:44:06;;;;;;;;;;;;;;;;;;4996553;28;7253;-85
2022/10/21 08:46:39;;;;;;;;;;;;;;;;;;5014887;28;7043;-85
2022/10/21 08:49:14;;;;;;;;;;;;;;;;;;5015451;28;7242;-84
2022/10/21 08:51:47;;;;;;;;;;;;;;;;;;5014722;28;7358;-85
2022/10/21 08:54:23;;;;;;;;;;;;;;;;;;5014529;28;8388;-84
2022/10/21 08:56:54;;;;;;;;;;;;;;;;;;5014774;28;8412;-83
2022/10/21 08:59:21;;;;;;;;;;;;;;;;;;5014557;28;7196;-84
2022/10/21 09:01:50;;;;;;;;;;;;;;;;;;5014579;28;8473;-84
2022/10/21 09:04:38;;;;;;;;;;;;;;;;;;5014285;28;7167;-84
2022/10/21 09:07:04;;;;;;;;;;;;;;;;;;4996159;28;7908;-84
2022/10/21 09:09:46;;;;;;;;;;;;;;;;;;5014863;28;8311;-85
2022/10/21 09:12:20;;;;;;;;;;;;;;;;;;5015148;28;8323;-79
2022/10/21 09:14:46;;;;;;;;;;;;;;;;;;5014742;28;7135;-78
2022/10/21 09:17:17;;;;;;;;;;;;;;;;;;5014590;28;7115;-79
2022/10/21 09:20:02;;;;;;;;;;;;;;;;;;5014497;28;7173;-81
2022/10/21 09:22:48;;;;;;;;;;;;;;;;;;5013509;28;8738;-85
2022/10/21 09:25:26;;;;;;;;;;;;;;;;;;5013019;28;8458;-83
2022/10/21 09:27:53;;;;;;;;;;;;;;;;;;5014835;28;7041;-85
2022/10/21 09:30:21;;;;;;;;;;;;;;;;;;5014134;28;8759;-85
2022/10/21 09:32:49;;;;;;;;;;;;;;;;;;5014027;28;7413;-84
2022/10/21 09:35:42;;;;;;;;;;;;;;;;;;5015087;28;7256;-84
2022/10/21 09:38:16;;;;;;;;;;;;;;;;;;5012726;28;8567;-85
2022/10/21 09:40:44;;;;;;;;;;;;;;;;;;5015315;28;8364;-83
2022/10/21 09:43:16;;;;;;;;;;;;;;;;;;5014268;28;8432;-85
2022/10/21 09:45:43;;;;;;;;;;;;;;;;;;5013962;28;8332;-85
2022/10/21 09:48:31;;;;;;;;;;;;;;;;;;5014183;28;8732;-84
2022/10/21 09:51:04;;;;;;;;;;;;;;;;;;5007236;28;7373;-85
2022/10/21 09:53:30;;;;;;;;;;;;;;;;;;5014504;28;7101;-85
2022/10/21 09:56:21;;;;;;;;;;;;;;;;;;5013731;28;8462;-84
2022/10/21 09:58:50;;;;;;;;;;;;;;;;;;4998538;28;7868;-85
2022/10/21 10:01:20;;;;;;;;;;;;;;;;;;5014007;28;7013;-84
2022/10/21 10:03:48;;;;;;;;;;;;;;;;;;5015020;28;6829;-84
2022/10/21 10:06:30;;;;;;;;;;;;;;;;;;5013931;28;7433;-84
2022/10/21 10:09:07;;;;;;;;;;;;;;;;;;5014706;28;8420;-83
2022/10/21 10:11:32;;;;;;;;;;;;;;;;;;5014008;28;7217;-84
2022/10/21 10:14:18;;;;;;;;;;;;;;;;;;5014369;28;7233;-85
2022/10/21 10:16:44;;;;;;;;;;;;;;;;;;5013883;28;7525;-85
2022/10/21 10:19:09;;;;;;;;;;;;;;;;;;5014051;28;8403;-85
2022/10/21 10:21:35;;;;;;;;;;;;;;;;;;5013893;28;7340;-84
2022/10/21 10:24:04;;;;;;;;;;;;;;;;;;5014482;28;8387;-85
2022/10/21 10:26:37;;;;;;;;;;;;;;;;;;5014783;28;7210;-84
2022/10/21 10:29:19;;;;;;;;;;;;;;;;;;5015029;28;7167;-84
2022/10/21 10:31:47;;;;;;;;;;;;;;;;;;5014777;28;8723;-84
2022/10/21 10:34:21;;;;;;;;;;;;;;;;;;5016894;28;7401;-84
2022/10/21 10:36:47;;;;;;;;;;;;;;;;;;5017423;28;7423;-85
2022/10/21 10:39:21;;;;;;;;;;;;;;;;;;5017129;28;6997;-74
2022/10/21 10:41:48;;;;;;;;;;;;;;;;;;5018917;28;8333;-84
2022/10/21 10:44:30;;;;;;;;;;;;;;;;;;5016102;28;8434;-85
2022/10/21 10:46:58;;;;;;;;;;;;;;;;;;5017576;28;8969;-82
2022/10/21 10:49:26;;;;;;;;;;;;;;;;;;5017310;28;8635;-83
2022/10/21 10:52:06;;;;;;;;;;;;;;;;;;5017602;28;8512;-82
2022/10/21 10:54:32;;;;;;;;;;;;;;;;;;5029291;28;8515;-85
2022/10/21 10:57:10;;;;;;;;;;;;;;;;;;5053198;28;7419;-82
2022/10/21 10:59:40;;;;;;;;;;;;;;;;;;5036419;28;7257;-83
2022/10/21 11:02:08;;;;;;;;;;;;;;;;;;5037668;28;7110;-83
2022/10/21 11:04:39;;;;;;;;;;;;;;;;;;5036865;28;7188;-83
2022/10/21 11:07:14;;;;;;;;;;;;;;;;;;5036613;28;8308;-83
2022/10/21 11:09:40;;;;;;;;;;;;;;;;;;5036330;28;7063;-82
2022/10/21 11:12:15;;;;;;;;;;;;;;;;;;5053232;28;8501;-83
2022/10/21 11:14:41;;;;;;;;;;;;;;;;;;5053416;28;7440;-84
2022/10/21 11:17:15;;;;;;;;;;;;;;;;;;5052185;28;8417;-84
2022/10/21 11:19:47;;;;;;;;;;;;;;;;;;5052965;28;7039;-85
2022/10/21 11:22:23;;;;;;;;;;;;;;;;;;5036495;28;8430;-83
2022/10/21 11:25:01;;;;;;;;;;;;;;;;;;5053147;28;8516;-83
2022/10/21 11:27:54;;;;;;;;;;;;;;;;;;5053292;28;7436;-84
2022/10/21 11:30:19;;;;;;;;;;;;;;;;;;5034019;28;8408;-86
2022/10/21 11:33:02;;;;;;;;;;;;;;;;;;5036018;28;8674;-83
2022/10/21 11:35:40;;;;;;;;;;;;;;;;;;5052761;28;7191;-85
2022/10/21 11:38:05;;;;;;;;;;;;;;;;;;5035695;28;8352;-84
2022/10/21 11:40:37;;;;;;;;;;;;;;;;;;5035831;28;8602;-85
2022/10/21 11:43:20;;;;;;;;;;;;;;;;;;5052752;28;8496;-83
2022/10/21 11:45:57;;;;;;;;;;;;;;;;;;5052484;28;7614;-83
2022/10/21 11:48:41;;;;;;;;;;;;;;;;;;5053133;28;8430;-83
2022/10/21 11:51:36;;;;;;;;;;;;;;;;;;5035681;28;8678;-81
2022/10/21 11:54:01;;;;;;;;;;;;;;;;;;5026185;28;8435;-83
2022/10/21 11:56:43;;;;;;;;;;;;;;;;;;5035141;28;8486;-83
2022/10/21 11:59:44;;;;;;;;;;;;;;;;;;5062504;28;7141;-84
2022/10/21 12:02:09;;;;;;;;;;;;;;;;;;4979924;28;8512;-84
2022/10/21 12:04:54;;;;;;;;;;;;;;;;;;5037073;28;7052;-84
2022/10/21 12:07:30;;;;;;;;;;;;;;;;;;5054966;28;7036;-83
2022/10/21 12:10:04;;;;;;;;;;;;;;;;;;5071529;28;8729;-85
2022/10/21 12:12:34;;;;;;;;;;;;;;;;;;5072082;28;8824;-83
2022/10/21 12:15:01;;;;;;;;;;;;;;;;;;5071945;28;8468;-83
2022/10/21 12:17:30;;;;;;;;;;;;;;;;;;5071741;28;8659;-84
2022/10/21 12:19:58;;;;;;;;;;;;;;;;;;5072042;28;7065;-84
2022/10/21 12:22:26;;;;;;;;;;;;;;;;;;5072072;28;7030;-83
2022/10/21 12:25:10;;;;;;;;;;;;;;;;;;5072414;28;7544;-83
2022/10/21 12:27:48;;;;;;;;;;;;;;;;;;5055016;28;8517;-84
2022/10/21 12:30:23;;;;;;;;;;;;;;;;;;5054813;28;8485;-83
2022/10/21 12:32:49;;;;;;;;;;;;;;;;;;5071429;28;7189;-84
2022/10/21 12:35:20;;;;;;;;;;;;;;;;;;5055133;28;8566;-85
2022/10/21 12:37:51;;;;;;;;;;;;;;;;;;5071466;28;8448;-82
2022/10/21 12:40:26;;;;;;;;;;;;;;;;;;5055245;28;8668;-84
2022/10/21 12:43:03;;;;;;;;;;;;;;;;;;5054717;28;8700;-84
2022/10/21 12:45:31;;;;;;;;;;;;;;;;;;5071943;28;7169;-85
2022/10/21 12:47:58;;;;;;;;;;;;;;;;;;5071532;28;7194;-84
2022/10/21 12:50:28;;;;;;;;;;;;;;;;;;5072496;28;7191;-84
2022/10/21 12:53:10;;;;;;;;;;;;;;;;;;5071630;28;8509;-84
2022/10/21 12:55:40;;;;;;;;;;;;;;;;;;5071727;28;7417;-84
2022/10/21 12:58:19;;;;;;;;;;;;;;;;;;5071086;28;8519;-84
2022/10/21 13:00:45;;;;;;;;;;;;;;;;;;5075750;28;7171;-84
2022/10/21 13:03:12;;;;;;;;;;;;;;;;;;5057305;28;7142;-85
2022/10/21 13:05:38;;;;;;;;;;;;;;;;;;5073203;28;7185;-84
2022/10/21 13:08:18;;;;;;;;;;;;;;;;;;5055655;28;8400;-83
2022/10/21 13:11:05;;;;;;;;;;;;;;;;;;5055309;28;8270;-83
2022/10/21 13:13:39;;;;;;;;;;;;;;;;;;5055646;28;8470;-85
2022/10/21 13:16:20;;;;;;;;;;;;;;;;;;5073476;28;8386;-81
2022/10/21 13:18:59;;;;;;;;;;;;;;;;;;5059851;28;7260;-83
2022/10/21 13:21:31;;;;;;;;;;;;;;;;;;5076277;28;8814;-81
2022/10/21 13:24:08;;;;;;;;;;;;;;;;;;5078407;28;7433;-75
2022/10/21 13:26:39;;;;;;;;;;;;;;;;;;5081266;28;8574;-77
2022/10/21 13:29:18;;;;;;;;;;;;;;;;;;5081335;28;7263;-82
2022/10/21 13:31:44;;;;;;;;;;;;;;;;;;5079564;28;7192;-75
2022/10/21 13:34:28;;;;;;;;;;;;;;;;;;5079719;28;6995;-80
2022/10/21 13:36:54;;;;;;;;;;;;;;;;;;5080196;28;8342;-80
2022/10/21 13:39:20;;;;;;;;;;;;;;;;;;5074974;28;7143;-80
2022/10/21 13:41:46;;;;;;;;;;;;;;;;;;5062257;28;7490;-76
2022/10/21 13:44:24;;;;;;;;;;;;;;;;;;5075910;28;8436;-83
2022/10/21 13:46:49;;;;;;;;;;;;;;;;;;5070271;28;8733;-82
2022/10/21 13:49:29;;;;;;;;;;;;;;;;;;5053556;28;7149;-83
2022/10/21 13:51:55;;;;;;;;;;;;;;;;;;5070496;28;7394;-84
2022/10/21 13:54:21;;;;;;;;;;;;;;;;;;5070224;28;7063;-83
2022/10/21 13:56:47;;;;;;;;;;;;;;;;;;5070294;28;8563;-83
2022/10/21 13:59:28;;;;;;;;;;;;;;;;;;5070131;28;8424;-83
2022/10/21 14:01:57;;;;;;;;;;;;;;;;;;5070591;28;8840;-82
2022/10/21 14:04:23;;;;;;;;;;;;;;;;;;5070817;28;8602;-82
2022/10/21 14:06:51;;;;;;;;;;;;;;;;;;5044370;28;8492;-81
2022/10/21 14:09:21;;;;;;;;;;;;;;;;;;5051835;28;7181;-83
2022/10/21 14:11:52;;;;;;;;;;;;;;;;;;5053961;28;8945;-83
2022/10/21 14:14:22;;;;;;;;;;;;;;;;;;5054082;28;8445;-84
2022/10/21 14:16:50;;;;;;;;;;;;;;;;;;5053769;28;7132;-83
2022/10/21 14:19:19;;;;;;;;;;;;;;;;;;5053989;28;7154;-84
2022/10/21 14:21:48;;;;;;;;;;;;;;;;;;5052665;28;8575;-83
2022/10/21 14:24:32;;;;;;;;;;;;;;;;;;5037344;28;8443;-83
2022/10/21 14:26:59;;;;;;;;;;;;;;;;;;5036566;28;8503;-83
2022/10/21 14:29:26;;;;;;;;;;;;;;;;;;5037508;28;8442;-83
2022/10/21 14:31:52;;;;;;;;;;;;;;;;;;5036115;28;8515;-82
2022/10/21 14:34:21;;;;;;;;;;;;;;;;;;5036463;28;7578;-83
2022/10/21 14:36:58;;;;;;;;;;;;;;;;;;5036942;28;8408;-82
2022/10/21 14:39:24;;;;;;;;;;;;;;;;;;5036830;28;7026;-81
2022/10/21 14:41:50;;;;;;;;;;;;;;;;;;5036654;28;7200;-82
2022/10/21 14:44:21;;;;;;;;;;;;;;;;;;5036670;28;8590;-83
2022/10/21 14:46:49;;;;;;;;;;;;;;;;;;5037059;28;7054;-86
2022/10/21 14:49:27;;;;;;;;;;;;;;;;;;5037015;28;7044;-82
2022/10/21 14:51:58;;;;;;;;;;;;;;;;;;5036420;28;8441;-83
2022/10/21 14:54:28;;;;;;;;;;;;;;;;;;5037018;28;8654;-81
2022/10/21 14:56:53;;;;;;;;;;;;;;;;;;5037036;28;9482;-83
2022/10/21 14:59:33;;;;;;;;;;;;;;;;;;5036526;28;8472;-84
2022/10/21 15:02:00;;;;;;;;;;;;;;;;;;5037398;28;8424;-83
2022/10/21 15:04:41;;;;;;;;;;;;;;;;;;5036395;28;8429;-83
2022/10/21 15:07:23;;;;;;;;;;;;;;;;;;5036100;28;7392;-82
2022/10/21 15:09:58;;;;;;;;;;;;;;;;;;5036469;28;7502;-83
2022/10/21 15:12:24;;;;;;;;;;;;;;;;;;5036940;28;7156;-83
2022/10/21 15:14:49;;;;;;;;;;;;;;;;;;5036128;28;8679;-83
2022/10/21 15:17:15;;;;;;;;;;;;;;;;;;5036416;28;8408;-83
2022/10/21 15:19:44;;;;;;;;;;;;;;;;;;5036257;28;8379;-84
2022/10/21 15:22:36;;;;;;;;;;;;;;;;;;5036035;28;8421;-80
2022/10/21 15:25:11;;;;;;;;;;;;;;;;;;5050009;28;7067;-83
2022/10/21 15:27:39;;;;;;;;;;;;;;;;;;5036398;28;8656;-84
2022/10/21 15:30:14;;;;;;;;;;;;;;;;;;5052200;28;8425;-83
2022/10/21 15:32:39;;;;;;;;;;;;;;;;;;5050225;28;7250;-82
2022/10/21 15:35:11;;;;;;;;;;;;;;;;;;5061196;28;7228;-82
2022/10/21 15:37:37;;;;;;;;;;;;;;;;;;5044133;28;7157;-81
2022/10/21 15:40:02;;;;;;;;;;;;;;;;;;5051091;28;8824;-83
2022/10/21 15:42:28;;;;;;;;;;;;;;;;;;5051552;28;7026;-82
2022/10/21 15:44:53;;;;;;;;;;;;;;;;;;5051514;28;8317;-80
2022/10/21 15:47:19;;;;;;;;;;;;;;;;;;5048785;28;8411;-81
2022/10/21 15:49:45;;;;;;;;;;;;;;;;;;5032868;28;7169;-82
2022/10/21 15:52:11;;;;;;;;;;;;;;;;;;5048135;28;8430;-81
2022/10/21 15:54:37;;;;;;;;;;;;;;;;;;5034659;28;7063;-84
2022/10/21 15:57:13;;;;;;;;;;;;;;;;;;5034217;28;8742;-79
2022/10/21 15:59:38;;;;;;;;;;;;;;;;;;5044466;28;8436;-80
2022/10/21 16:02:04;;;;;;;;;;;;;;;;;;5049426;28;8696;-82
2022/10/21 16:04:29;;;;;;;;;;;;;;;;;;5051024;28;7412;-84
2022/10/21 16:06:55;;;;;;;;;;;;;;;;;;5043767;28;8447;-82
2022/10/21 16:09:22;;;;;;;;;;;;;;;;;;5050229;28;8322;-81
2022/10/21 16:11:49;;;;;;;;;;;;;;;;;;5032427;28;7090;-82
2022/10/21 16:14:15;;;;;;;;;;;;;;;;;;5034189;28;7138;-84
2022/10/21 16:16:44;;;;;;;;;;;;;;;;;;5034881;28;7227;-84
2022/10/21 16:19:10;;;;;;;;;;;;;;;;;;5034402;28;8644;-82
2022/10/21 16:21:35;;;;;;;;;;;;;;;;;;5049835;28;8391;-79
2022/10/21 16:24:00;;;;;;;;;;;;;;;;;;5050136;28;7158;-82
2022/10/21 16:26:27;;;;;;;;;;;;;;;;;;5050599;28;7039;-83
2022/10/21 16:28:55;;;;;;;;;;;;;;;;;;5034203;28;7059;-81
2022/10/21 16:31:21;;;;;;;;;;;;;;;;;;5032323;28;8812;-85
2022/10/21 16:33:47;;;;;;;;;;;;;;;;;;5033724;28;8778;-84
2022/10/21 16:36:15;;;;;;;;;;;;;;;;;;5050694;28;7332;-82
2022/10/21 16:38:42;;;;;;;;;;;;;;;;;;5050591;28;7237;-80
2022/10/21 16:41:09;;;;;;;;;;;;;;;;;;5050349;28;8858;-82
2022/10/21 16:43:35;;;;;;;;;;;;;;;;;;5049940;28;7220;-83
2022/10/21 16:46:00;;;;;;;;;;;;;;;;;;5050556;28;7045;-84
2022/10/21 16:48:26;;;;;;;;;;;;;;;;;;5050497;28;8667;-85
2022/10/21 16:50:51;;;;;;;;;;;;;;;;;;5049424;28;7496;-82
2022/10/21 16:53:17;;;;;;;;;;;;;;;;;;5049587;28;8510;-83
2022/10/21 16:55:42;;;;;;;;;;;;;;;;;;5047585;28;6990;-82
2022/10/21 16:58:08;;;;;;;;;;;;;;;;;;5049327;28;8580;-83
2022/10/21 17:00:34;;;;;;;;;;;;;;;;;;5049726;28;8531;-81
2022/10/21 17:03:00;;;;;;;;;;;;;;;;;;5049468;28;9355;-84
2022/10/21 17:05:25;;;;;;;;;;;;;;;;;;5049994;28;8448;-84
2022/10/21 17:07:51;;;;;;;;;;;;;;;;;;5049914;28;8458;-85
2022/10/21 17:10:17;;;;;;;;;;;;;;;;;;5033711;28;8448;-82
2022/10/21 17:12:42;;;;;;;;;;;;;;;;;;5049267;28;7108;-85
2022/10/21 17:15:08;;;;;;;;;;;;;;;;;;5048674;28;7216;-83
2022/10/21 17:17:35;;;;;;;;;;;;;;;;;;5033432;28;8288;-84